Date,TemperatureHighF,TemperatureAvgF,TemperatureLowF,DewpointHighF,DewpointAvgF,DewpointLowF,HumidityHigh,HumidityAvg,HumidityLow,PressureMaxIn,PressureMinIn,WindSpeedMaxMPH,WindSpeedAvgMPH,GustSpeedMaxMPH,PrecipitationSumIn
2013-10-1,85,76,68,72,69,65,93,79,56,29.83,29.76,16,3,19,0.00
2013-10-2,85,76,69,73,70,65,96,82,53,29.88,29.80,8,2,11,0.00
2013-10-3,80,75,70,72,70,68,95,85,71,29.96,29.84,18,7,20,0.00
2013-10-4,83,76,72,74,72,69,94,87,68,30.01,29.89,14,6,21,0.00
2013-10-5,76,72,67,70,65,59,91,78,59,30.16,30.02,20,6,24,0.00
2013-10-6,75,68,63,61,59,54,88,75,51,30.18,30.13,17,4,19,0.01
2013-10-7,74,66,63,61,58,55,85,75,52,30.18,30.12,11,4,14,0.00
2013-10-8,75,67,60,61,58,54,87,73,49,30.19,30.14,8,2,10,0.00
2013-10-9,71,66,62,61,59,58,89,78,67,30.18,30.07,10,3,13,0.00
2013-10-10,74,67,62,64,60,58,88,79,66,30.09,29.88,14,2,18,0.00
2013-10-11,67,63,58,61,58,55,92,83,74,29.96,29.88,15,8,22,0.01
2013-10-12,75,67,61,63,61,57,91,81,61,30.08,29.95,14,5,18,0.00
2013-10-13,76,70,66,67,64,62,91,81,62,30.10,30.04,10,2,13,0.00
2013-10-14,76,69,65,66,64,61,90,82,67,30.12,30.05,10,2,15,0.00
2013-10-15,76,70,66,67,63,60,91,78,57,30.12,29.99,15,3,18,0.00
2013-10-16,84,76,69,66,61,58,86,62,42,30.06,30.00,11,3,15,0.00
2013-10-17,79,74,69,67,65,63,89,75,60,30.11,30.05,11,3,15,0.00
2013-10-18,79,71,66,67,65,62,94,81,60,30.04,29.94,7,1,11,0.00
2013-10-19,79,71,66,68,66,63,93,83,66,30.05,29.97,10,2,11,0.00
2013-10-20,77,70,65,68,66,63,95,87,70,30.11,30.02,8,1,11,0.00
2013-10-21,79,71,64,68,66,62,96,86,69,30.11,29.99,6,2,10,0.01
2013-10-22,76,71,66,69,67,64,96,87,73,29.99,29.87,13,3,16,0.01
2013-10-23,76,71,67,68,65,58,93,82,54,30.03,29.89,12,2,16,0.00
2013-10-24,77,70,66,67,63,60,92,81,56,30.06,29.99,9,1,14,0.00
2013-10-25,81,72,65,67,64,57,92,77,56,30.03,29.95,14,5,18,0.00
2013-10-26,83,74,69,71,68,60,92,82,65,30.07,29.95,12,5,17,0.00
2013-10-27,81,72,66,69,67,64,95,85,62,30.19,30.08,9,2,11,0.01
2013-10-28,76,70,66,68,66,65,96,89,72,30.16,29.94,11,2,13,0.02
2013-10-29,70,67,58,66,63,55,95,88,75,29.96,29.86,27,9,43,0.39